sensor_id;sensor_type;location;lat;lon;timestamp;P1;durP1;ratioP1;P2;durP2;ratioP2
43857;SDS011;29507;51.284;5.758;2022-12-07T00:01:40;11.05;;;6.93;;
43857;SDS011;29507;51.284;5.758;2022-12-07T00:04:08;14.68;;;7.50;;
43857;SDS011;29507;51.284;5.758;2022-12-07T00:09:06;11.85;;;6.53;;
43857;SDS011;29507;51.284;5.758;2022-12-07T00:11:34;16.40;;;7.55;;
43857;SDS011;29507;51.284;5.758;2022-12-07T00:14:01;13.73;;;7.72;;
43857;SDS011;29507;51.284;5.758;2022-12-07T00:16:29;15.18;;;8.10;;
43857;SDS011;29507;51.284;5.758;2022-12-07T00:18:56;21.75;;;8.25;;
43857;SDS011;29507;51.284;5.758;2022-12-07T00:21:23;14.43;;;7.95;;
43857;SDS011;29507;51.284;5.758;2022-12-07T00:23:51;15.73;;;7.37;;
43857;SDS011;29507;51.284;5.758;2022-12-07T00:26:19;15.63;;;8.32;;
43857;SDS011;29507;51.284;5.758;2022-12-07T00:28:46;17.85;;;8.27;;
43857;SDS011;29507;51.284;5.758;2022-12-07T00:31:14;15.73;;;8.77;;
43857;SDS011;29507;51.284;5.758;2022-12-07T00:33:41;15.25;;;8.85;;
43857;SDS011;29507;51.284;5.758;2022-12-07T00:36:08;16.77;;;8.85;;
43857;SDS011;29507;51.284;5.758;2022-12-07T00:38:37;14.07;;;7.78;;
43857;SDS011;29507;51.284;5.758;2022-12-07T00:41:05;14.68;;;7.90;;
43857;SDS011;29507;51.284;5.758;2022-12-07T00:43:32;14.93;;;8.75;;
43857;SDS011;29507;51.284;5.758;2022-12-07T00:45:58;14.55;;;7.60;;
43857;SDS011;29507;51.284;5.758;2022-12-07T00:48:24;17.52;;;8.15;;
43857;SDS011;29507;51.284;5.758;2022-12-07T00:50:50;18.38;;;9.02;;
43857;SDS011;29507;51.284;5.758;2022-12-07T00:53:15;19.33;;;8.70;;
43857;SDS011;29507;51.284;5.758;2022-12-07T00:55:42;18.17;;;7.75;;
43857;SDS011;29507;51.284;5.758;2022-12-07T00:58:08;15.82;;;7.60;;
43857;SDS011;29507;51.284;5.758;2022-12-07T01:00:38;18.25;;;9.50;;
43857;SDS011;29507;51.284;5.758;2022-12-07T01:03:05;14.50;;;8.20;;
43857;SDS011;29507;51.284;5.758;2022-12-07T01:05:32;17.45;;;7.93;;
43857;SDS011;29507;51.284;5.758;2022-12-07T01:07:57;15.55;;;9.02;;
43857;SDS011;29507;51.284;5.758;2022-12-07T01:10:23;14.55;;;7.90;;
43857;SDS011;29507;51.284;5.758;2022-12-07T01:12:49;17.83;;;8.63;;
43857;SDS011;29507;51.284;5.758;2022-12-07T01:15:14;16.55;;;8.18;;
43857;SDS011;29507;51.284;5.758;2022-12-07T01:17:40;16.15;;;8.00;;
43857;SDS011;29507;51.284;5.758;2022-12-07T01:20:06;17.17;;;7.72;;
43857;SDS011;29507;51.284;5.758;2022-12-07T01:22:36;16.63;;;8.65;;
43857;SDS011;29507;51.284;5.758;2022-12-07T01:25:05;13.18;;;8.13;;
43857;SDS011;29507;51.284;5.758;2022-12-07T01:27:32;22.52;;;8.32;;
43857;SDS011;29507;51.284;5.758;2022-12-07T01:29:58;14.15;;;8.00;;
43857;SDS011;29507;51.284;5.758;2022-12-07T01:32:24;15.98;;;7.93;;
43857;SDS011;29507;51.284;5.758;2022-12-07T01:34:50;16.70;;;8.75;;
43857;SDS011;29507;51.284;5.758;2022-12-07T01:37:15;14.07;;;8.55;;
43857;SDS011;29507;51.284;5.758;2022-12-07T01:39:41;14.95;;;8.55;;
43857;SDS011;29507;51.284;5.758;2022-12-07T01:42:10;22.05;;;8.93;;
43857;SDS011;29507;51.284;5.758;2022-12-07T01:47:56;17.40;;;9.43;;
43857;SDS011;29507;51.284;5.758;2022-12-07T01:50:24;17.67;;;8.82;;
43857;SDS011;29507;51.284;5.758;2022-12-07T01:52:53;20.42;;;9.30;;
43857;SDS011;29507;51.284;5.758;2022-12-07T01:55:21;16.92;;;8.75;;
43857;SDS011;29507;51.284;5.758;2022-12-07T01:57:47;16.45;;;8.27;;
43857;SDS011;29507;51.284;5.758;2022-12-07T02:00:15;20.77;;;9.97;;
43857;SDS011;29507;51.284;5.758;2022-12-07T02:02:53;20.17;;;10.00;;
43857;SDS011;29507;51.284;5.758;2022-12-07T02:05:32;17.63;;;10.18;;
43857;SDS011;29507;51.284;5.758;2022-12-07T02:07:59;28.23;;;11.15;;
43857;SDS011;29507;51.284;5.758;2022-12-07T02:10:26;16.88;;;9.38;;
43857;SDS011;29507;51.284;5.758;2022-12-07T02:13:04;22.98;;;10.00;;
43857;SDS011;29507;51.284;5.758;2022-12-07T02:21:36;21.90;;;9.82;;
43857;SDS011;29507;51.284;5.758;2022-12-07T02:35:09;13.05;;;8.32;;
43857;SDS011;29507;51.284;5.758;2022-12-07T02:37:43;15.45;;;9.32;;
43857;SDS011;29507;51.284;5.758;2022-12-07T02:40:21;20.63;;;9.82;;
43857;SDS011;29507;51.284;5.758;2022-12-07T02:43:02;18.20;;;8.52;;
43857;SDS011;29507;51.284;5.758;2022-12-07T02:45:36;16.70;;;8.63;;
43857;SDS011;29507;51.284;5.758;2022-12-07T02:48:04;18.48;;;10.32;;
43857;SDS011;29507;51.284;5.758;2022-12-07T02:50:32;19.95;;;9.48;;
43857;SDS011;29507;51.284;5.758;2022-12-07T02:52:57;18.83;;;9.40;;
43857;SDS011;29507;51.284;5.758;2022-12-07T02:55:25;17.45;;;9.77;;
43857;SDS011;29507;51.284;5.758;2022-12-07T03:03:48;16.77;;;9.27;;
43857;SDS011;29507;51.284;5.758;2022-12-07T03:06:31;17.67;;;9.43;;
43857;SDS011;29507;51.284;5.758;2022-12-07T03:09:07;17.83;;;9.23;;
43857;SDS011;29507;51.284;5.758;2022-12-07T03:11:55;17.40;;;8.82;;
43857;SDS011;29507;51.284;5.758;2022-12-07T03:14:35;16.65;;;9.60;;
43857;SDS011;29507;51.284;5.758;2022-12-07T03:17:08;18.10;;;9.27;;
43857;SDS011;29507;51.284;5.758;2022-12-07T03:19:41;13.63;;;8.30;;
43857;SDS011;29507;51.284;5.758;2022-12-07T03:22:10;17.75;;;8.23;;
43857;SDS011;29507;51.284;5.758;2022-12-07T03:24:50;15.20;;;8.00;;
43857;SDS011;29507;51.284;5.758;2022-12-07T03:27:23;16.17;;;7.85;;
43857;SDS011;29507;51.284;5.758;2022-12-07T03:32:36;21.02;;;8.38;;
43857;SDS011;29507;51.284;5.758;2022-12-07T03:35:26;19.83;;;8.20;;
43857;SDS011;29507;51.284;5.758;2022-12-07T03:37:56;19.35;;;8.88;;
43857;SDS011;29507;51.284;5.758;2022-12-07T03:40:30;21.67;;;8.63;;
43857;SDS011;29507;51.284;5.758;2022-12-07T03:43:17;18.90;;;8.52;;
43857;SDS011;29507;51.284;5.758;2022-12-07T03:45:45;18.95;;;9.55;;
43857;SDS011;29507;51.284;5.758;2022-12-07T03:48:20;17.67;;;8.70;;
43857;SDS011;29507;51.284;5.758;2022-12-07T03:51:08;16.83;;;8.05;;
43857;SDS011;29507;51.284;5.758;2022-12-07T03:53:50;11.85;;;6.63;;
43857;SDS011;29507;51.284;5.758;2022-12-07T03:56:21;13.55;;;7.38;;
43857;SDS011;29507;51.284;5.758;2022-12-07T03:58:48;13.10;;;8.00;;
43857;SDS011;29507;51.284;5.758;2022-12-07T04:01:14;14.95;;;8.10;;
43857;SDS011;29507;51.284;5.758;2022-12-07T04:03:39;16.88;;;7.75;;
43857;SDS011;29507;51.284;5.758;2022-12-07T04:06:05;17.45;;;8.57;;
43857;SDS011;29507;51.284;5.758;2022-12-07T04:08:31;14.23;;;7.10;;
43857;SDS011;29507;51.284;5.758;2022-12-07T04:10:56;14.75;;;7.85;;
43857;SDS011;29507;51.284;5.758;2022-12-07T04:13:22;14.95;;;7.13;;
43857;SDS011;29507;51.284;5.758;2022-12-07T04:15:48;17.10;;;7.35;;
43857;SDS011;29507;51.284;5.758;2022-12-07T04:18:13;14.25;;;6.63;;
43857;SDS011;29507;51.284;5.758;2022-12-07T04:20:39;16.60;;;6.80;;
43857;SDS011;29507;51.284;5.758;2022-12-07T04:23:04;13.43;;;7.20;;
43857;SDS011;29507;51.284;5.758;2022-12-07T04:25:30;11.07;;;6.47;;
43857;SDS011;29507;51.284;5.758;2022-12-07T04:27:55;15.82;;;7.78;;
43857;SDS011;29507;51.284;5.758;2022-12-07T04:30:21;17.42;;;6.97;;
43857;SDS011;29507;51.284;5.758;2022-12-07T04:32:47;16.90;;;6.97;;
43857;SDS011;29507;51.284;5.758;2022-12-07T04:35:12;15.13;;;6.30;;
43857;SDS011;29507;51.284;5.758;2022-12-07T04:37:38;14.30;;;6.13;;
43857;SDS011;29507;51.284;5.758;2022-12-07T04:40:05;14.63;;;6.43;;
43857;SDS011;29507;51.284;5.758;2022-12-07T04:42:36;15.18;;;6.78;;
43857;SDS011;29507;51.284;5.758;2022-12-07T04:45:02;15.30;;;6.28;;
43857;SDS011;29507;51.284;5.758;2022-12-07T04:47:28;14.63;;;6.20;;
43857;SDS011;29507;51.284;5.758;2022-12-07T04:49:53;14.43;;;6.82;;
43857;SDS011;29507;51.284;5.758;2022-12-07T04:52:19;10.63;;;6.10;;
43857;SDS011;29507;51.284;5.758;2022-12-07T04:54:45;16.02;;;6.38;;
43857;SDS011;29507;51.284;5.758;2022-12-07T04:57:10;12.25;;;5.35;;
43857;SDS011;29507;51.284;5.758;2022-12-07T04:59:36;17.00;;;6.78;;
43857;SDS011;29507;51.284;5.758;2022-12-07T05:02:01;9.98;;;6.18;;
43857;SDS011;29507;51.284;5.758;2022-12-07T05:04:27;11.57;;;6.68;;
43857;SDS011;29507;51.284;5.758;2022-12-07T05:06:53;12.23;;;5.75;;
43857;SDS011;29507;51.284;5.758;2022-12-07T05:09:18;11.20;;;5.95;;
43857;SDS011;29507;51.284;5.758;2022-12-07T05:11:44;15.52;;;6.47;;
43857;SDS011;29507;51.284;5.758;2022-12-07T05:14:11;15.25;;;5.85;;
43857;SDS011;29507;51.284;5.758;2022-12-07T05:16:42;12.23;;;6.45;;
43857;SDS011;29507;51.284;5.758;2022-12-07T05:19:09;16.35;;;6.25;;
43857;SDS011;29507;51.284;5.758;2022-12-07T05:21:35;13.68;;;5.95;;
43857;SDS011;29507;51.284;5.758;2022-12-07T05:24:02;13.30;;;6.07;;
43857;SDS011;29507;51.284;5.758;2022-12-07T05:26:28;10.93;;;5.85;;
43857;SDS011;29507;51.284;5.758;2022-12-07T05:28:55;11.25;;;5.95;;
43857;SDS011;29507;51.284;5.758;2022-12-07T05:31:23;12.00;;;6.90;;
43857;SDS011;29507;51.284;5.758;2022-12-07T05:33:49;11.23;;;5.38;;
43857;SDS011;29507;51.284;5.758;2022-12-07T05:36:15;13.88;;;5.95;;
43857;SDS011;29507;51.284;5.758;2022-12-07T05:38:41;14.73;;;6.43;;
43857;SDS011;29507;51.284;5.758;2022-12-07T05:41:07;12.55;;;5.93;;
43857;SDS011;29507;51.284;5.758;2022-12-07T05:43:53;15.18;;;6.25;;
43857;SDS011;29507;51.284;5.758;2022-12-07T05:46:20;13.70;;;6.78;;
43857;SDS011;29507;51.284;5.758;2022-12-07T05:48:45;12.65;;;5.57;;
43857;SDS011;29507;51.284;5.758;2022-12-07T05:51:11;17.08;;;7.18;;
43857;SDS011;29507;51.284;5.758;2022-12-07T05:53:36;14.52;;;6.63;;
43857;SDS011;29507;51.284;5.758;2022-12-07T05:56:02;12.38;;;6.72;;
43857;SDS011;29507;51.284;5.758;2022-12-07T05:58:27;15.40;;;6.60;;
43857;SDS011;29507;51.284;5.758;2022-12-07T06:01:19;12.82;;;6.40;;
43857;SDS011;29507;51.284;5.758;2022-12-07T06:03:45;11.70;;;6.43;;
43857;SDS011;29507;51.284;5.758;2022-12-07T06:06:10;14.50;;;7.35;;
43857;SDS011;29507;51.284;5.758;2022-12-07T06:08:36;15.52;;;6.78;;
43857;SDS011;29507;51.284;5.758;2022-12-07T06:11:02;14.75;;;7.57;;
43857;SDS011;29507;51.284;5.758;2022-12-07T06:13:46;15.45;;;6.68;;
43857;SDS011;29507;51.284;5.758;2022-12-07T06:16:11;13.80;;;6.78;;
43857;SDS011;29507;51.284;5.758;2022-12-07T06:18:37;16.73;;;7.18;;
43857;SDS011;29507;51.284;5.758;2022-12-07T06:21:02;13.32;;;6.25;;
43857;SDS011;29507;51.284;5.758;2022-12-07T06:23:28;14.75;;;5.93;;
43857;SDS011;29507;51.284;5.758;2022-12-07T06:25:54;12.82;;;6.13;;
43857;SDS011;29507;51.284;5.758;2022-12-07T06:28:19;16.73;;;5.95;;
43857;SDS011;29507;51.284;5.758;2022-12-07T06:30:45;12.52;;;5.57;;
43857;SDS011;29507;51.284;5.758;2022-12-07T06:33:10;14.60;;;6.47;;
43857;SDS011;29507;51.284;5.758;2022-12-07T06:35:36;13.40;;;6.90;;
43857;SDS011;29507;51.284;5.758;2022-12-07T06:38:01;10.57;;;6.40;;
43857;SDS011;29507;51.284;5.758;2022-12-07T06:40:27;11.00;;;5.65;;
43857;SDS011;29507;51.284;5.758;2022-12-07T06:42:53;11.68;;;6.50;;
43857;SDS011;29507;51.284;5.758;2022-12-07T06:45:18;20.17;;;5.95;;
43857;SDS011;29507;51.284;5.758;2022-12-07T06:47:44;15.75;;;5.47;;
43857;SDS011;29507;51.284;5.758;2022-12-07T06:50:09;12.18;;;6.10;;
43857;SDS011;29507;51.284;5.758;2022-12-07T06:52:35;14.60;;;7.07;;
43857;SDS011;29507;51.284;5.758;2022-12-07T06:55:00;11.77;;;6.53;;
43857;SDS011;29507;51.284;5.758;2022-12-07T06:57:26;14.63;;;5.63;;
43857;SDS011;29507;51.284;5.758;2022-12-07T06:59:52;17.25;;;5.85;;
43857;SDS011;29507;51.284;5.758;2022-12-07T07:02:17;9.10;;;4.88;;
43857;SDS011;29507;51.284;5.758;2022-12-07T07:04:43;13.95;;;5.38;;
43857;SDS011;29507;51.284;5.758;2022-12-07T07:07:08;17.73;;;5.30;;
43857;SDS011;29507;51.284;5.758;2022-12-07T07:09:34;10.23;;;5.57;;
43857;SDS011;29507;51.284;5.758;2022-12-07T07:11:59;8.77;;;5.07;;
43857;SDS011;29507;51.284;5.758;2022-12-07T07:14:25;15.32;;;5.55;;
43857;SDS011;29507;51.284;5.758;2022-12-07T07:16:51;8.55;;;4.18;;
43857;SDS011;29507;51.284;5.758;2022-12-07T07:19:16;11.30;;;4.43;;
43857;SDS011;29507;51.284;5.758;2022-12-07T07:21:42;9.93;;;4.78;;
43857;SDS011;29507;51.284;5.758;2022-12-07T07:24:08;13.52;;;5.07;;
43857;SDS011;29507;51.284;5.758;2022-12-07T07:26:33;14.25;;;5.57;;
43857;SDS011;29507;51.284;5.758;2022-12-07T07:28:59;12.18;;;5.18;;
43857;SDS011;29507;51.284;5.758;2022-12-07T07:31:24;11.27;;;5.65;;
43857;SDS011;29507;51.284;5.758;2022-12-07T07:33:50;15.90;;;5.00;;
43857;SDS011;29507;51.284;5.758;2022-12-07T07:36:15;12.18;;;5.75;;
43857;SDS011;29507;51.284;5.758;2022-12-07T07:38:41;10.20;;;5.43;;
43857;SDS011;29507;51.284;5.758;2022-12-07T07:41:07;12.32;;;5.50;;
43857;SDS011;29507;51.284;5.758;2022-12-07T07:43:32;15.90;;;6.13;;
43857;SDS011;29507;51.284;5.758;2022-12-07T07:45:58;14.75;;;6.45;;
43857;SDS011;29507;51.284;5.758;2022-12-07T07:48:23;19.05;;;7.60;;
43857;SDS011;29507;51.284;5.758;2022-12-07T07:50:50;16.02;;;6.80;;
43857;SDS011;29507;51.284;5.758;2022-12-07T07:53:16;16.38;;;5.68;;
43857;SDS011;29507;51.284;5.758;2022-12-07T07:55:49;13.70;;;7.07;;
43857;SDS011;29507;51.284;5.758;2022-12-07T07:58:17;17.75;;;6.68;;
43857;SDS011;29507;51.284;5.758;2022-12-07T08:00:42;14.40;;;5.85;;
43857;SDS011;29507;51.284;5.758;2022-12-07T08:03:08;17.27;;;6.35;;
43857;SDS011;29507;51.284;5.758;2022-12-07T08:05:33;15.00;;;6.90;;
43857;SDS011;29507;51.284;5.758;2022-12-07T08:07:59;18.55;;;6.65;;
43857;SDS011;29507;51.284;5.758;2022-12-07T08:10:24;13.98;;;7.15;;
43857;SDS011;29507;51.284;5.758;2022-12-07T08:12:50;16.05;;;6.97;;
43857;SDS011;29507;51.284;5.758;2022-12-07T08:15:35;23.00;;;8.00;;
43857;SDS011;29507;51.284;5.758;2022-12-07T08:18:03;15.55;;;7.68;;
43857;SDS011;29507;51.284;5.758;2022-12-07T08:20:32;19.55;;;8.90;;
43857;SDS011;29507;51.284;5.758;2022-12-07T08:23:00;15.75;;;8.07;;
43857;SDS011;29507;51.284;5.758;2022-12-07T08:25:26;20.63;;;8.82;;
43857;SDS011;29507;51.284;5.758;2022-12-07T08:27:52;24.42;;;9.13;;
43857;SDS011;29507;51.284;5.758;2022-12-07T08:30:18;19.73;;;8.35;;
43857;SDS011;29507;51.284;5.758;2022-12-07T08:32:44;22.30;;;9.90;;
43857;SDS011;29507;51.284;5.758;2022-12-07T08:35:11;23.10;;;9.25;;
43857;SDS011;29507;51.284;5.758;2022-12-07T08:37:36;20.77;;;9.30;;
43857;SDS011;29507;51.284;5.758;2022-12-07T08:40:03;21.70;;;9.68;;
43857;SDS011;29507;51.284;5.758;2022-12-07T08:42:29;23.85;;;9.82;;
43857;SDS011;29507;51.284;5.758;2022-12-07T08:45:03;22.80;;;10.40;;
43857;SDS011;29507;51.284;5.758;2022-12-07T08:47:30;26.02;;;11.38;;
43857;SDS011;29507;51.284;5.758;2022-12-07T08:49:55;27.77;;;10.80;;
43857;SDS011;29507;51.284;5.758;2022-12-07T08:52:21;22.92;;;11.13;;
43857;SDS011;29507;51.284;5.758;2022-12-07T08:54:47;25.75;;;11.27;;
43857;SDS011;29507;51.284;5.758;2022-12-07T08:57:13;26.85;;;12.00;;
43857;SDS011;29507;51.284;5.758;2022-12-07T08:59:39;27.45;;;12.57;;
43857;SDS011;29507;51.284;5.758;2022-12-07T09:02:05;33.38;;;13.57;;
43857;SDS011;29507;51.284;5.758;2022-12-07T09:04:31;31.02;;;13.70;;
43857;SDS011;29507;51.284;5.758;2022-12-07T09:06:56;30.05;;;13.52;;
43857;SDS011;29507;51.284;5.758;2022-12-07T09:09:22;32.35;;;14.50;;
43857;SDS011;29507;51.284;5.758;2022-12-07T09:11:48;30.25;;;13.27;;
43857;SDS011;29507;51.284;5.758;2022-12-07T09:14:13;28.25;;;13.52;;
43857;SDS011;29507;51.284;5.758;2022-12-07T09:16:39;29.15;;;13.82;;
43857;SDS011;29507;51.284;5.758;2022-12-07T09:19:05;33.70;;;13.93;;
43857;SDS011;29507;51.284;5.758;2022-12-07T09:21:30;30.98;;;13.65;;
43857;SDS011;29507;51.284;5.758;2022-12-07T09:23:56;28.25;;;13.00;;
43857;SDS011;29507;51.284;5.758;2022-12-07T09:26:21;28.35;;;12.18;;
43857;SDS011;29507;51.284;5.758;2022-12-07T09:28:47;31.02;;;13.38;;
43857;SDS011;29507;51.284;5.758;2022-12-07T09:31:12;29.50;;;12.57;;
43857;SDS011;29507;51.284;5.758;2022-12-07T09:33:38;34.78;;;11.85;;
43857;SDS011;29507;51.284;5.758;2022-12-07T09:36:04;27.67;;;12.30;;
43857;SDS011;29507;51.284;5.758;2022-12-07T09:38:30;22.38;;;11.32;;
43857;SDS011;29507;51.284;5.758;2022-12-07T09:40:56;27.45;;;11.90;;
43857;SDS011;29507;51.284;5.758;2022-12-07T09:43:22;23.70;;;11.10;;
43857;SDS011;29507;51.284;5.758;2022-12-07T09:45:50;27.92;;;10.85;;
43857;SDS011;29507;51.284;5.758;2022-12-07T09:48:27;19.00;;;8.95;;
43857;SDS011;29507;51.284;5.758;2022-12-07T09:50:57;22.38;;;10.05;;
43857;SDS011;29507;51.284;5.758;2022-12-07T09:53:28;18.50;;;9.20;;
43857;SDS011;29507;51.284;5.758;2022-12-07T09:55:59;23.13;;;9.93;;
43857;SDS011;29507;51.284;5.758;2022-12-07T09:58:26;18.55;;;9.38;;
43857;SDS011;29507;51.284;5.758;2022-12-07T10:00:55;21.23;;;10.07;;
43857;SDS011;29507;51.284;5.758;2022-12-07T10:03:25;18.67;;;9.98;;
43857;SDS011;29507;51.284;5.758;2022-12-07T10:05:54;17.95;;;9.93;;
43857;SDS011;29507;51.284;5.758;2022-12-07T10:08:20;19.65;;;10.35;;
43857;SDS011;29507;51.284;5.758;2022-12-07T10:10:49;20.02;;;9.60;;
43857;SDS011;29507;51.284;5.758;2022-12-07T10:16:03;21.88;;;10.13;;
43857;SDS011;29507;51.284;5.758;2022-12-07T10:18:37;16.85;;;7.68;;
43857;SDS011;29507;51.284;5.758;2022-12-07T10:21:17;19.88;;;8.48;;
43857;SDS011;29507;51.284;5.758;2022-12-07T10:24:02;17.80;;;7.88;;
43857;SDS011;29507;51.284;5.758;2022-12-07T10:29:31;13.90;;;7.90;;
43857;SDS011;29507;51.284;5.758;2022-12-07T10:31:57;15.75;;;7.07;;
43857;SDS011;29507;51.284;5.758;2022-12-07T10:34:36;14.40;;;7.68;;
43857;SDS011;29507;51.284;5.758;2022-12-07T10:37:14;15.85;;;6.68;;
43857;SDS011;29507;51.284;5.758;2022-12-07T10:39:55;11.23;;;6.63;;
43857;SDS011;29507;51.284;5.758;2022-12-07T10:42:23;11.88;;;5.75;;
43857;SDS011;29507;51.284;5.758;2022-12-07T10:47:51;9.85;;;5.40;;
43857;SDS011;29507;51.284;5.758;2022-12-07T10:59:15;12.73;;;5.15;;
43857;SDS011;29507;51.284;5.758;2022-12-07T11:10:19;11.38;;;3.70;;
43857;SDS011;29507;51.284;5.758;2022-12-07T11:15:59;9.05;;;3.10;;
43857;SDS011;29507;51.284;5.758;2022-12-07T11:18:29;7.05;;;3.00;;
43857;SDS011;29507;51.284;5.758;2022-12-07T11:23:52;8.10;;;3.00;;
43857;SDS011;29507;51.284;5.758;2022-12-07T11:31:53;4.90;;;2.08;;
43857;SDS011;29507;51.284;5.758;2022-12-07T11:36:47;7.38;;;2.10;;
43857;SDS011;29507;51.284;5.758;2022-12-07T11:39:22;7.30;;;2.33;;
43857;SDS011;29507;51.284;5.758;2022-12-07T11:42:00;8.55;;;2.83;;
43857;SDS011;29507;51.284;5.758;2022-12-07T11:47:38;5.82;;;1.80;;
43857;SDS011;29507;51.284;5.758;2022-12-07T11:53:02;5.93;;;2.22;;
43857;SDS011;29507;51.284;5.758;2022-12-07T11:56:12;5.95;;;1.75;;
43857;SDS011;29507;51.284;5.758;2022-12-07T12:01:08;7.45;;;1.88;;
43857;SDS011;29507;51.284;5.758;2022-12-07T12:03:38;10.00;;;1.75;;
43857;SDS011;29507;51.284;5.758;2022-12-07T12:06:08;9.38;;;1.75;;
43857;SDS011;29507;51.284;5.758;2022-12-07T12:11:29;12.95;;;2.38;;
43857;SDS011;29507;51.284;5.758;2022-12-07T12:22:26;7.35;;;1.95;;
43857;SDS011;29507;51.284;5.758;2022-12-07T12:25:03;3.63;;;1.38;;
43857;SDS011;29507;51.284;5.758;2022-12-07T12:27:32;7.07;;;1.48;;
43857;SDS011;29507;51.284;5.758;2022-12-07T12:30:06;6.72;;;1.92;;
43857;SDS011;29507;51.284;5.758;2022-12-07T12:32:48;7.68;;;2.10;;
43857;SDS011;29507;51.284;5.758;2022-12-07T12:35:31;8.35;;;1.48;;
43857;SDS011;29507;51.284;5.758;2022-12-07T12:40:44;7.47;;;1.52;;
43857;SDS011;29507;51.284;5.758;2022-12-07T12:51:43;5.03;;;1.63;;
43857;SDS011;29507;51.284;5.758;2022-12-07T12:54:15;6.25;;;1.67;;
43857;SDS011;29507;51.284;5.758;2022-12-07T12:56:47;6.38;;;2.50;;
43857;SDS011;29507;51.284;5.758;2022-12-07T12:59:32;6.60;;;1.60;;
43857;SDS011;29507;51.284;5.758;2022-12-07T13:04:52;6.32;;;1.80;;
43857;SDS011;29507;51.284;5.758;2022-12-07T13:15:44;13.27;;;2.55;;
43857;SDS011;29507;51.284;5.758;2022-12-07T13:20:59;6.93;;;2.78;;
43857;SDS011;29507;51.284;5.758;2022-12-07T13:23:31;5.07;;;2.53;;
43857;SDS011;29507;51.284;5.758;2022-12-07T13:26:04;8.02;;;2.50;;
43857;SDS011;29507;51.284;5.758;2022-12-07T13:28:39;5.68;;;2.55;;
43857;SDS011;29507;51.284;5.758;2022-12-07T13:31:14;8.57;;;2.37;;
43857;SDS011;29507;51.284;5.758;2022-12-07T13:36:57;10.05;;;2.45;;
43857;SDS011;29507;51.284;5.758;2022-12-07T13:39:29;8.10;;;2.28;;
43857;SDS011;29507;51.284;5.758;2022-12-07T13:41:58;8.20;;;2.28;;
43857;SDS011;29507;51.284;5.758;2022-12-07T13:44:27;5.22;;;2.75;;
43857;SDS011;29507;51.284;5.758;2022-12-07T13:49:53;10.65;;;1.75;;
43857;SDS011;29507;51.284;5.758;2022-12-07T13:52:21;3.78;;;1.92;;
43857;SDS011;29507;51.284;5.758;2022-12-07T13:54:48;4.72;;;2.35;;
43857;SDS011;29507;51.284;5.758;2022-12-07T13:57:20;6.22;;;2.72;;
43857;SDS011;29507;51.284;5.758;2022-12-07T13:59:47;5.53;;;2.45;;
43857;SDS011;29507;51.284;5.758;2022-12-07T14:02:26;4.93;;;2.35;;
43857;SDS011;29507;51.284;5.758;2022-12-07T14:05:06;5.57;;;3.03;;
43857;SDS011;29507;51.284;5.758;2022-12-07T14:07:52;5.95;;;2.80;;
43857;SDS011;29507;51.284;5.758;2022-12-07T14:10:39;9.90;;;2.90;;
43857;SDS011;29507;51.284;5.758;2022-12-07T14:15:56;4.70;;;2.42;;
43857;SDS011;29507;51.284;5.758;2022-12-07T14:18:27;6.15;;;2.00;;
43857;SDS011;29507;51.284;5.758;2022-12-07T14:23:40;7.47;;;3.05;;
43857;SDS011;29507;51.284;5.758;2022-12-07T14:26:13;10.85;;;2.63;;
43857;SDS011;29507;51.284;5.758;2022-12-07T14:28:41;9.38;;;3.40;;
43857;SDS011;29507;51.284;5.758;2022-12-07T14:31:10;10.18;;;3.08;;
43857;SDS011;29507;51.284;5.758;2022-12-07T14:33:41;7.65;;;3.28;;
43857;SDS011;29507;51.284;5.758;2022-12-07T14:36:11;11.50;;;3.13;;
43857;SDS011;29507;51.284;5.758;2022-12-07T14:38:38;6.13;;;2.35;;
43857;SDS011;29507;51.284;5.758;2022-12-07T14:41:04;18.08;;;3.65;;
43857;SDS011;29507;51.284;5.758;2022-12-07T14:43:55;4.93;;;2.28;;
43857;SDS011;29507;51.284;5.758;2022-12-07T14:46:21;5.57;;;3.22;;
43857;SDS011;29507;51.284;5.758;2022-12-07T14:48:46;5.63;;;3.00;;
43857;SDS011;29507;51.284;5.758;2022-12-07T14:51:13;6.28;;;2.85;;
43857;SDS011;29507;51.284;5.758;2022-12-07T14:53:46;7.22;;;2.85;;
43857;SDS011;29507;51.284;5.758;2022-12-07T14:56:16;6.47;;;2.33;;
43857;SDS011;29507;51.284;5.758;2022-12-07T14:58:42;9.63;;;3.05;;
43857;SDS011;29507;51.284;5.758;2022-12-07T15:01:08;5.88;;;2.40;;
43857;SDS011;29507;51.284;5.758;2022-12-07T15:03:33;8.00;;;2.50;;
43857;SDS011;29507;51.284;5.758;2022-12-07T15:05:59;5.93;;;2.22;;
43857;SDS011;29507;51.284;5.758;2022-12-07T15:08:26;6.75;;;2.30;;
43857;SDS011;29507;51.284;5.758;2022-12-07T15:10:52;6.70;;;2.58;;
43857;SDS011;29507;51.284;5.758;2022-12-07T15:13:17;6.72;;;2.83;;
43857;SDS011;29507;51.284;5.758;2022-12-07T15:16:01;11.02;;;3.38;;
43857;SDS011;29507;51.284;5.758;2022-12-07T15:18:27;9.65;;;3.50;;
43857;SDS011;29507;51.284;5.758;2022-12-07T15:20:52;5.20;;;2.20;;
43857;SDS011;29507;51.284;5.758;2022-12-07T15:23:18;7.03;;;1.90;;
43857;SDS011;29507;51.284;5.758;2022-12-07T15:25:44;7.32;;;2.22;;
43857;SDS011;29507;51.284;5.758;2022-12-07T15:28:12;7.30;;;2.50;;
43857;SDS011;29507;51.284;5.758;2022-12-07T15:30:38;3.67;;;2.10;;
43857;SDS011;29507;51.284;5.758;2022-12-07T15:33:05;10.00;;;2.90;;
43857;SDS011;29507;51.284;5.758;2022-12-07T15:35:31;6.88;;;2.08;;
43857;SDS011;29507;51.284;5.758;2022-12-07T15:37:57;8.35;;;2.10;;
43857;SDS011;29507;51.284;5.758;2022-12-07T15:40:22;6.15;;;2.20;;
43857;SDS011;29507;51.284;5.758;2022-12-07T15:42:48;7.20;;;2.30;;
43857;SDS011;29507;51.284;5.758;2022-12-07T15:45:13;6.93;;;2.40;;
43857;SDS011;29507;51.284;5.758;2022-12-07T15:47:40;10.63;;;3.40;;
43857;SDS011;29507;51.284;5.758;2022-12-07T15:50:09;6.13;;;2.50;;
43857;SDS011;29507;51.284;5.758;2022-12-07T15:52:37;8.60;;;2.45;;
43857;SDS011;29507;51.284;5.758;2022-12-07T15:55:03;8.23;;;3.38;;
43857;SDS011;29507;51.284;5.758;2022-12-07T15:57:29;7.72;;;2.97;;
43857;SDS011;29507;51.284;5.758;2022-12-07T15:59:55;5.78;;;2.67;;
43857;SDS011;29507;51.284;5.758;2022-12-07T16:02:21;8.77;;;2.70;;
43857;SDS011;29507;51.284;5.758;2022-12-07T16:04:47;9.50;;;3.20;;
43857;SDS011;29507;51.284;5.758;2022-12-07T16:07:13;8.48;;;2.55;;
43857;SDS011;29507;51.284;5.758;2022-12-07T16:09:40;6.50;;;2.75;;
43857;SDS011;29507;51.284;5.758;2022-12-07T16:12:06;6.88;;;2.92;;
43857;SDS011;29507;51.284;5.758;2022-12-07T16:14:32;8.35;;;3.85;;
43857;SDS011;29507;51.284;5.758;2022-12-07T16:16:58;7.18;;;3.55;;
43857;SDS011;29507;51.284;5.758;2022-12-07T16:19:24;12.18;;;3.47;;
43857;SDS011;29507;51.284;5.758;2022-12-07T16:21:49;9.43;;;3.38;;
43857;SDS011;29507;51.284;5.758;2022-12-07T16:24:15;9.27;;;3.55;;
43857;SDS011;29507;51.284;5.758;2022-12-07T16:26:41;7.05;;;3.35;;
43857;SDS011;29507;51.284;5.758;2022-12-07T16:29:09;9.75;;;3.60;;
43857;SDS011;29507;51.284;5.758;2022-12-07T16:31:36;10.20;;;3.22;;
43857;SDS011;29507;51.284;5.758;2022-12-07T16:34:02;8.73;;;4.00;;
43857;SDS011;29507;51.284;5.758;2022-12-07T16:36:28;15.18;;;4.15;;
43857;SDS011;29507;51.284;5.758;2022-12-07T16:38:54;7.32;;;3.65;;
43857;SDS011;29507;51.284;5.758;2022-12-07T16:41:20;7.85;;;3.63;;
43857;SDS011;29507;51.284;5.758;2022-12-07T16:43:45;6.97;;;3.17;;
43857;SDS011;29507;51.284;5.758;2022-12-07T16:46:11;7.10;;;4.13;;
43857;SDS011;29507;51.284;5.758;2022-12-07T16:48:38;17.08;;;4.13;;
43857;SDS011;29507;51.284;5.758;2022-12-07T16:51:05;9.52;;;3.90;;
43857;SDS011;29507;51.284;5.758;2022-12-07T16:53:33;10.82;;;3.05;;